Time;durP1;ratioP1;P1;durP2;ratioP2;P2;SDS_P1;SDS_P2;PMS_P1;PMS_P2;Temp;Humidity;BMP_temperature;BMP_pressure;BME280_temperature;BME280_humidity;BME280_pressure;Samples;Min_cycle;Max_cycle;Signal;HPM_P1;HPM_P2
2022/07/26 00:01:07;;;;;;;13.43;2.55;;;;;;;;;;4994119;28;20042;-65
2022/07/26 00:03:33;;;;;;;22.90;3.75;;;;;;;;;;4994291;28;20082;-65
2022/07/26 00:05:59;;;;;;;12.90;3.13;;;;;;;;;;4994265;28;20657;-65
2022/07/26 00:08:25;;;;;;;12.68;2.78;;;;;;;;;;4993710;28;20583;-65
2022/07/26 00:10:51;;;;;;;12.93;2.60;;;;;;;;;;4994175;28;20393;-65
2022/07/26 00:13:19;;;;;;;14.90;2.97;;;;;;;;;;4994223;28;20049;-65
2022/07/26 00:15:46;;;;;;;14.82;2.55;;;;;;;;;;4976379;28;20077;-65
2022/07/26 00:18:12;;;;;;;12.63;3.22;;;;;;;;;;4976336;28;20432;-65
2022/07/26 00:20:38;;;;;;;12.20;3.22;;;;;;;;;;4994122;28;20424;-65
2022/07/26 00:23:04;;;;;;;14.60;3.20;;;;;;;;;;4993537;28;20105;-65
2022/07/26 00:25:30;;;;;;;14.00;3.08;;;;;;;;;;4976360;28;20461;-65
2022/07/26 00:27:56;;;;;;;15.43;3.17;;;;;;;;;;4993526;28;20046;-65
2022/07/26 00:30:22;;;;;;;12.82;2.80;;;;;;;;;;4993586;28;20038;-65
2022/07/26 00:32:48;;;;;;;12.45;2.90;;;;;;;;;;4993900;28;20450;-65
2022/07/26 00:35:15;;;;;;;15.07;2.78;;;;;;;;;;4993681;28;20046;-65
2022/07/26 00:37:41;;;;;;;16.85;2.90;;;;;;;;;;4993112;28;20125;-65
2022/07/26 00:40:08;;;;;;;12.52;3.00;;;;;;;;;;4976243;28;20042;-65
2022/07/26 00:42:34;;;;;;;12.30;2.75;;;;;;;;;;4993613;28;20038;-65
2022/07/26 00:45:00;;;;;;;13.48;2.72;;;;;;;;;;4993202;28;20046;-65
2022/07/26 00:47:26;;;;;;;12.48;3.08;;;;;;;;;;4993169;28;20133;-65
2022/07/26 00:49:52;;;;;;;16.67;3.40;;;;;;;;;;4993583;28;20118;-65
2022/07/26 00:52:18;;;;;;;20.52;3.30;;;;;;;;;;4993118;28;20289;-65
2022/07/26 00:54:45;;;;;;;14.15;2.90;;;;;;;;;;4993537;28;20401;-65
2022/07/26 00:57:12;;;;;;;15.95;2.85;;;;;;;;;;4992953;28;20065;-65
2022/07/26 00:59:38;;;;;;;14.85;2.72;;;;;;;;;;4992497;28;20081;-65
2022/07/26 01:02:05;;;;;;;17.20;3.20;;;;;;;;;;4993319;28;20053;-65
2022/07/26 01:04:31;;;;;;;16.75;3.58;;;;;;;;;;4993109;28;20053;-65
2022/07/26 01:06:57;;;;;;;15.57;3.13;;;;;;;;;;4974939;28;20054;-65
2022/07/26 01:09:23;;;;;;;17.08;2.85;;;;;;;;;;4993213;28;20046;-65
2022/07/26 01:11:50;;;;;;;15.90;3.40;;;;;;;;;;4993114;28;20088;-65
2022/07/26 01:14:20;;;;;;;15.00;2.88;;;;;;;;;;4975026;28;20444;-66
2022/07/26 01:16:46;;;;;;;14.82;3.03;;;;;;;;;;4992966;28;20057;-65
2022/07/26 01:19:12;;;;;;;15.18;3.53;;;;;;;;;;4992997;28;20501;-65
2022/07/26 01:21:38;;;;;;;14.55;3.35;;;;;;;;;;4992729;28;20334;-65
2022/07/26 01:24:04;;;;;;;14.05;2.92;;;;;;;;;;4992753;28;20045;-65
2022/07/26 01:26:30;;;;;;;18.08;3.30;;;;;;;;;;4992677;28;20042;-65
2022/07/26 01:28:56;;;;;;;18.48;3.28;;;;;;;;;;4992754;28;20092;-65
2022/07/26 01:31:23;;;;;;;17.65;3.83;;;;;;;;;;4992389;28;20145;-65
2022/07/26 01:33:49;;;;;;;13.63;2.75;;;;;;;;;;4992794;28;20638;-65
2022/07/26 01:36:15;;;;;;;15.25;3.17;;;;;;;;;;4992584;28;20070;-65
2022/07/26 01:38:42;;;;;;;11.52;3.08;;;;;;;;;;4992300;28;20102;-65
2022/07/26 01:41:08;;;;;;;12.43;2.95;;;;;;;;;;4992542;28;20042;-65
2022/07/26 01:43:34;;;;;;;9.73;2.80;;;;;;;;;;4974959;28;20077;-65
2022/07/26 01:46:00;;;;;;;13.57;3.00;;;;;;;;;;4974146;28;20126;-65
2022/07/26 01:48:26;;;;;;;12.43;3.47;;;;;;;;;;4992531;28;20093;-65
2022/07/26 01:50:52;;;;;;;14.27;2.88;;;;;;;;;;4992528;28;20045;-65
2022/07/26 01:53:18;;;;;;;12.60;2.92;;;;;;;;;;4992051;28;20370;-65
2022/07/26 01:55:44;;;;;;;15.15;3.40;;;;;;;;;;4992504;28;20066;-65
2022/07/26 01:58:10;;;;;;;9.88;2.50;;;;;;;;;;4992372;28;20066;-65
2022/07/26 02:00:36;;;;;;;16.08;3.50;;;;;;;;;;4991977;28;20121;-65
2022/07/26 02:03:03;;;;;;;16.25;3.00;;;;;;;;;;4974798;28;20057;-65
2022/07/26 02:05:29;;;;;;;9.30;2.40;;;;;;;;;;4992408;28;20069;-65
2022/07/26 02:07:55;;;;;;;14.55;2.80;;;;;;;;;;4991772;28;20129;-65
2022/07/26 02:10:22;;;;;;;13.93;2.65;;;;;;;;;;4992034;28;20042;-65
2022/07/26 02:12:48;;;;;;;11.90;2.60;;;;;;;;;;4992352;28;20401;-65
2022/07/26 02:15:14;;;;;;;10.90;2.90;;;;;;;;;;4974531;28;20477;-65
2022/07/26 02:17:40;;;;;;;7.85;2.67;;;;;;;;;;4992173;28;20045;-65
2022/07/26 02:20:07;;;;;;;10.18;2.45;;;;;;;;;;4992107;28;20446;-65
2022/07/26 02:22:33;;;;;;;9.95;2.85;;;;;;;;;;4991500;28;20053;-65
2022/07/26 02:24:59;;;;;;;8.15;2.70;;;;;;;;;;4991996;28;20049;-65
2022/07/26 02:27:25;;;;;;;11.88;2.75;;;;;;;;;;4992099;28;20081;-65
2022/07/26 02:29:51;;;;;;;9.45;2.55;;;;;;;;;;4991716;28;20473;-65
2022/07/26 02:32:17;;;;;;;9.40;2.55;;;;;;;;;;4992182;28;20034;-65
2022/07/26 02:34:43;;;;;;;10.35;2.80;;;;;;;;;;4992158;28;20038;-65
2022/07/26 02:37:09;;;;;;;13.27;2.45;;;;;;;;;;4991529;28;20402;-65
2022/07/26 02:39:35;;;;;;;7.85;2.38;;;;;;;;;;4991810;28;20077;-65
2022/07/26 02:42:02;;;;;;;6.82;2.17;;;;;;;;;;4992014;28;20076;-65
2022/07/26 02:44:29;;;;;;;5.63;1.90;;;;;;;;;;4991542;28;20043;-65
2022/07/26 02:46:55;;;;;;;5.68;2.15;;;;;;;;;;4991589;28;20065;-65
2022/07/26 02:49:21;;;;;;;10.15;2.42;;;;;;;;;;4991913;28;20054;-65
2022/07/26 02:51:47;;;;;;;6.80;2.03;;;;;;;;;;4991438;28;20042;-65
2022/07/26 02:54:14;;;;;;;5.55;2.13;;;;;;;;;;4974403;28;20612;-65
2022/07/26 02:56:40;;;;;;;10.63;2.47;;;;;;;;;;4991764;28;20054;-65
2022/07/26 02:59:07;;;;;;;7.25;2.28;;;;;;;;;;4991376;28;20529;-65
2022/07/26 03:01:34;;;;;;;6.25;2.08;;;;;;;;;;4991833;28;20042;-65
2022/07/26 03:04:00;;;;;;;6.63;2.28;;;;;;;;;;4991457;28;20093;-65
2022/07/26 03:06:26;;;;;;;4.75;2.38;;;;;;;;;;4991311;28;20053;-65
2022/07/26 03:08:52;;;;;;;4.45;2.45;;;;;;;;;;4991344;28;20130;-65
2022/07/26 03:11:18;;;;;;;4.13;2.13;;;;;;;;;;4991642;28;20054;-65
2022/07/26 03:13:44;;;;;;;11.10;2.50;;;;;;;;;;4991269;28;20042;-65
2022/07/26 03:16:10;;;;;;;3.95;2.13;;;;;;;;;;4974138;28;20129;-65
2022/07/26 03:18:37;;;;;;;6.95;2.42;;;;;;;;;;4991182;28;20054;-65
2022/07/26 03:21:03;;;;;;;5.88;2.17;;;;;;;;;;4991540;28;20477;-65
2022/07/26 03:23:32;;;;;;;3.67;2.20;;;;;;;;;;4995155;28;20385;-65
2022/07/26 03:25:58;;;;;;;3.25;2.00;;;;;;;;;;4994942;28;20701;-65
2022/07/26 03:28:24;;;;;;;6.70;2.30;;;;;;;;;;4994749;28;20042;-65
2022/07/26 03:30:50;;;;;;;9.00;2.10;;;;;;;;;;4994728;28;20038;-65
2022/07/26 03:33:16;;;;;;;10.50;2.22;;;;;;;;;;4994988;28;20429;-65
2022/07/26 03:35:42;;;;;;;6.38;1.90;;;;;;;;;;4994266;28;20038;-65
2022/07/26 03:38:08;;;;;;;7.25;2.00;;;;;;;;;;4994594;28;20053;-65
2022/07/26 03:40:34;;;;;;;8.23;2.58;;;;;;;;;;4994799;28;20042;-65
2022/07/26 03:43:01;;;;;;;8.05;2.10;;;;;;;;;;4994401;28;20125;-65
2022/07/26 03:45:28;;;;;;;6.32;2.00;;;;;;;;;;4994802;28;20152;-65
2022/07/26 03:47:54;;;;;;;6.00;2.20;;;;;;;;;;4994430;28;20055;-65
2022/07/26 03:50:20;;;;;;;5.63;1.85;;;;;;;;;;4994326;28;20390;-65
2022/07/26 03:52:46;;;;;;;7.40;2.00;;;;;;;;;;4994374;28;20048;-65
2022/07/26 03:57:56;;;;;;;5.43;1.70;;;;;;;;;;4993688;28;20053;-65
2022/07/26 04:00:23;;;;;;;5.40;1.80;;;;;;;;;;4994414;28;20042;-65
2022/07/26 04:02:49;;;;;;;5.35;1.95;;;;;;;;;;4994438;28;20134;-65
2022/07/26 04:05:15;;;;;;;7.47;2.05;;;;;;;;;;4993838;28;20073;-65
2022/07/26 04:07:45;;;;;;;5.65;2.20;;;;;;;;;;4994249;28;20045;-65
2022/07/26 04:10:12;;;;;;;7.82;2.42;;;;;;;;;;4994246;28;20485;-65
2022/07/26 04:12:38;;;;;;;7.30;2.10;;;;;;;;;;4993884;28;20453;-65
2022/07/26 04:15:04;;;;;;;8.90;2.35;;;;;;;;;;4994037;28;20239;-65
2022/07/26 04:17:37;;;;;;;8.63;2.45;;;;;;;;;;4976551;28;20050;-65
2022/07/26 04:20:05;;;;;;;7.30;2.22;;;;;;;;;;4993637;28;20082;-65
2022/07/26 04:22:31;;;;;;;7.45;2.08;;;;;;;;;;4976699;28;20054;-65
2022/07/26 04:24:57;;;;;;;6.00;2.10;;;;;;;;;;4993867;28;20043;-65
2022/07/26 04:27:24;;;;;;;7.32;1.92;;;;;;;;;;4993302;28;20491;-65
2022/07/26 04:29:50;;;;;;;10.93;2.30;;;;;;;;;;4993570;28;20125;-65
2022/07/26 04:32:16;;;;;;;8.48;2.30;;;;;;;;;;4993136;28;20042;-65
2022/07/26 04:34:42;;;;;;;10.27;2.67;;;;;;;;;;4959519;28;20050;-65
2022/07/26 04:37:08;;;;;;;9.57;1.58;;;;;;;;;;4993714;28;20044;-65
2022/07/26 04:39:34;;;;;;;9.15;2.13;;;;;;;;;;4993740;28;20058;-65
2022/07/26 04:42:00;;;;;;;8.30;1.73;;;;;;;;;;4993345;28;20038;-65
2022/07/26 04:44:26;;;;;;;5.97;2.00;;;;;;;;;;4993640;28;20049;-65
2022/07/26 04:46:52;;;;;;;5.15;1.60;;;;;;;;;;4993074;28;20054;-65
2022/07/26 04:49:18;;;;;;;5.15;1.40;;;;;;;;;;4993060;28;20081;-65
2022/07/26 04:51:44;;;;;;;9.48;1.70;;;;;;;;;;4993269;28;20039;-65
2022/07/26 04:54:10;;;;;;;8.00;1.55;;;;;;;;;;4993478;28;20519;-65
2022/07/26 04:56:36;;;;;;;5.22;1.20;;;;;;;;;;4992689;28;20048;-65
2022/07/26 04:59:02;;;;;;;5.93;1.38;;;;;;;;;;4975670;28;20046;-65
2022/07/26 05:01:28;;;;;;;9.07;1.23;;;;;;;;;;4993119;28;20038;-65
2022/07/26 05:03:54;;;;;;;6.15;1.30;;;;;;;;;;4992645;28;20050;-65
2022/07/26 05:06:20;;;;;;;5.32;1.30;;;;;;;;;;4992991;28;20034;-65
2022/07/26 05:08:46;;;;;;;10.73;1.45;;;;;;;;;;4993316;28;20057;-65
2022/07/26 05:11:12;;;;;;;6.95;1.60;;;;;;;;;;4992953;28;20052;-65
2022/07/26 05:13:38;;;;;;;5.95;1.38;;;;;;;;;;4993210;28;20045;-65
2022/07/26 05:16:05;;;;;;;8.60;1.50;;;;;;;;;;4975358;28;20058;-65
2022/07/26 05:18:31;;;;;;;5.68;1.20;;;;;;;;;;4992774;28;20536;-65
2022/07/26 05:20:57;;;;;;;6.30;1.30;;;;;;;;;;4992863;28;20052;-65
2022/07/26 05:23:23;;;;;;;4.15;1.23;;;;;;;;;;4975477;28;20129;-65
2022/07/26 05:25:49;;;;;;;4.38;1.27;;;;;;;;;;4992046;28;20038;-65
2022/07/26 05:28:15;;;;;;;5.38;1.20;;;;;;;;;;4975153;28;20477;-65
2022/07/26 05:30:41;;;;;;;6.40;1.35;;;;;;;;;;4975152;28;20042;-65
2022/07/26 05:33:07;;;;;;;6.15;0.88;;;;;;;;;;4992841;28;20038;-65
2022/07/26 05:35:33;;;;;;;5.95;0.70;;;;;;;;;;4992495;28;20895;-65
2022/07/26 05:37:59;;;;;;;6.82;1.30;;;;;;;;;;4992563;28;20039;-65
2022/07/26 05:40:25;;;;;;;11.85;1.75;;;;;;;;;;4974969;28;20049;-65
2022/07/26 05:42:51;;;;;;;2.97;0.80;;;;;;;;;;4992024;28;20469;-65
2022/07/26 05:45:17;;;;;;;6.65;1.00;;;;;;;;;;4974518;28;20081;-65
2022/07/26 05:47:44;;;;;;;4.03;1.00;;;;;;;;;;4992249;28;20623;-65
2022/07/26 05:50:10;;;;;;;4.60;0.85;;;;;;;;;;4992134;28;20038;-65
2022/07/26 05:52:36;;;;;;;5.45;1.10;;;;;;;;;;4992157;28;20099;-65
2022/07/26 05:55:02;;;;;;;8.38;1.13;;;;;;;;;;4992437;28;20038;-65
2022/07/26 05:57:28;;;;;;;9.02;1.30;;;;;;;;;;4991721;28;20397;-65
2022/07/26 05:59:54;;;;;;;7.90;1.35;;;;;;;;;;4992420;28;20444;-65
2022/07/26 06:02:20;;;;;;;4.50;1.00;;;;;;;;;;4991896;28;20038;-65
2022/07/26 06:04:46;;;;;;;6.15;0.95;;;;;;;;;;4991881;28;20477;-65
2022/07/26 06:07:12;;;;;;;2.67;0.80;;;;;;;;;;4992260;28;20479;-65
2022/07/26 06:09:38;;;;;;;4.45;0.70;;;;;;;;;;4974449;28;20100;-65
2022/07/26 06:12:05;;;;;;;6.20;0.80;;;;;;;;;;4991489;28;20393;-65
2022/07/26 06:14:31;;;;;;;4.75;0.80;;;;;;;;;;4992157;28;20420;-65
2022/07/26 06:16:57;;;;;;;3.05;1.05;;;;;;;;;;4991909;28;20034;-65
2022/07/26 06:19:23;;;;;;;4.55;0.80;;;;;;;;;;4998335;28;20085;-63
2022/07/26 06:21:49;;;;;;;8.52;0.98;;;;;;;;;;4987815;28;20161;-63
2022/07/26 06:24:15;;;;;;;6.75;1.17;;;;;;;;;;4991596;28;20617;-62
2022/07/26 06:26:41;;;;;;;1.80;0.70;;;;;;;;;;4991304;28;20145;-62
2022/07/26 06:29:07;;;;;;;3.35;0.85;;;;;;;;;;4974474;28;20132;-63
2022/07/26 06:31:33;;;;;;;4.57;0.70;;;;;;;;;;4990794;28;20046;-63
2022/07/26 06:33:59;;;;;;;6.43;0.88;;;;;;;;;;4991344;28;20453;-63
2022/07/26 06:36:25;;;;;;;8.13;0.90;;;;;;;;;;4991446;28;20385;-62
2022/07/26 06:38:53;;;;;;;5.45;0.80;;;;;;;;;;4991357;28;20052;-61
2022/07/26 06:41:19;;;;;;;7.22;0.95;;;;;;;;;;4989366;28;20097;-63
2022/07/26 06:43:45;;;;;;;5.82;0.68;;;;;;;;;;4991328;28;20473;-64
2022/07/26 06:46:11;;;;;;;5.82;1.00;;;;;;;;;;4991102;28;20129;-64
2022/07/26 06:48:37;;;;;;;6.88;0.90;;;;;;;;;;4991265;28;20146;-63
2022/07/26 06:51:03;;;;;;;5.05;1.38;;;;;;;;;;5006256;28;20041;-64
2022/07/26 06:53:30;;;;;;;5.05;0.85;;;;;;;;;;4997184;28;20038;-63
2022/07/26 06:55:56;;;;;;;5.75;1.10;;;;;;;;;;4991146;28;20054;-64
2022/07/26 06:58:22;;;;;;;6.00;0.80;;;;;;;;;;4995126;28;20057;-63
2022/07/26 07:00:48;;;;;;;5.38;0.70;;;;;;;;;;4995126;28;20045;-63
2022/07/26 07:03:14;;;;;;;7.03;1.00;;;;;;;;;;4994240;28;20039;-63
2022/07/26 07:05:41;;;;;;;4.20;0.88;;;;;;;;;;4994806;28;20042;-62
2022/07/26 07:08:07;;;;;;;7.20;1.05;;;;;;;;;;4994894;28;20045;-63
2022/07/26 07:10:33;;;;;;;5.07;0.80;;;;;;;;;;4994360;28;20046;-63
2022/07/26 07:12:59;;;;;;;3.83;1.00;;;;;;;;;;4994778;28;20069;-64
2022/07/26 07:15:25;;;;;;;9.05;1.10;;;;;;;;;;4995039;28;20737;-64
2022/07/26 07:17:51;;;;;;;5.20;0.82;;;;;;;;;;5005663;28;20061;-66
2022/07/26 07:20:17;;;;;;;3.03;0.65;;;;;;;;;;4980321;28;20133;-64
2022/07/26 07:22:43;;;;;;;4.68;1.00;;;;;;;;;;5003112;28;20116;-63
2022/07/26 07:25:09;;;;;;;6.68;1.05;;;;;;;;;;4994323;28;20046;-63
2022/07/26 07:27:35;;;;;;;5.82;0.88;;;;;;;;;;4994603;28;20057;-65
2022/07/26 07:30:01;;;;;;;6.45;1.02;;;;;;;;;;4994566;28;20038;-65
2022/07/26 07:32:27;;;;;;;4.32;0.77;;;;;;;;;;4994225;28;20113;-65
2022/07/26 07:34:53;;;;;;;4.15;0.90;;;;;;;;;;4994581;28;20122;-66
2022/07/26 07:37:20;;;;;;;3.63;0.77;;;;;;;;;;5005224;28;20041;-65
2022/07/26 07:39:46;;;;;;;9.85;0.93;;;;;;;;;;4989815;28;20070;-65
2022/07/26 07:42:12;;;;;;;5.20;0.90;;;;;;;;;;4992119;28;20084;-65
2022/07/26 07:44:38;;;;;;;6.78;1.00;;;;;;;;;;4993365;28;20049;-67
2022/07/26 07:47:05;;;;;;;4.28;0.77;;;;;;;;;;5005698;28;20066;-67
2022/07/26 07:49:31;;;;;;;4.50;1.10;;;;;;;;;;4976362;28;20077;-66
2022/07/26 07:51:57;;;;;;;4.90;0.88;;;;;;;;;;4976075;28;20077;-66
2022/07/26 07:54:23;;;;;;;7.03;0.90;;;;;;;;;;4993403;28;20057;-66
2022/07/26 07:56:50;;;;;;;4.63;0.63;;;;;;;;;;4975681;28;20129;-65
2022/07/26 07:59:16;;;;;;;2.60;0.50;;;;;;;;;;4993724;28;20057;-64
2022/07/26 08:01:42;;;;;;;2.95;0.70;;;;;;;;;;4992875;28;20038;-64
2022/07/26 08:04:08;;;;;;;3.60;0.73;;;;;;;;;;5001657;28;20081;-64
2022/07/26 08:06:34;;;;;;;2.03;0.40;;;;;;;;;;4993679;28;20043;-64
2022/07/26 08:09:00;;;;;;;9.30;0.93;;;;;;;;;;4992680;28;20045;-64
2022/07/26 08:11:26;;;;;;;2.70;0.60;;;;;;;;;;5008784;28;20412;-64
2022/07/26 08:13:53;;;;;;;2.08;0.50;;;;;;;;;;4999519;28;20760;-65
2022/07/26 08:16:18;;;;;;;5.38;0.50;;;;;;;;;;4993041;28;20053;-64
2022/07/26 08:18:45;;;;;;;4.80;0.60;;;;;;;;;;4993235;28;20469;-65
2022/07/26 08:21:11;;;;;;;6.70;0.88;;;;;;;;;;4980269;28;20050;-64
2022/07/26 08:23:37;;;;;;;4.22;0.75;;;;;;;;;;4992451;28;20045;-65
2022/07/26 08:26:03;;;;;;;6.25;0.70;;;;;;;;;;4993341;28;20041;-64
2022/07/26 08:28:29;;;;;;;4.15;0.82;;;;;;;;;;4993375;28;20046;-65
2022/07/26 08:30:55;;;;;;;4.07;0.88;;;;;;;;;;4993191;28;20113;-63
2022/07/26 08:33:22;;;;;;;6.15;0.90;;;;;;;;;;4992289;28;20555;-64
2022/07/26 08:35:48;;;;;;;8.52;1.00;;;;;;;;;;4993009;28;20049;-64
2022/07/26 08:38:14;;;;;;;5.45;1.10;;;;;;;;;;4992538;28;20077;-63
2022/07/26 08:40:40;;;;;;;6.55;0.90;;;;;;;;;;4994931;28;20708;-63
2022/07/26 08:43:07;;;;;;;7.32;0.90;;;;;;;;;;4992647;28;20038;-62
2022/07/26 08:45:33;;;;;;;4.88;1.00;;;;;;;;;;4992673;28;20077;-65
2022/07/26 08:48:00;;;;;;;8.57;1.08;;;;;;;;;;4991739;28;20086;-65
2022/07/26 08:50:27;;;;;;;4.88;0.77;;;;;;;;;;4992309;28;20046;-65
2022/07/26 08:52:56;;;;;;;3.17;1.02;;;;;;;;;;4992088;28;20049;-65
2022/07/26 08:55:22;;;;;;;5.55;0.85;;;;;;;;;;4991120;28;20042;-64
2022/07/26 08:57:48;;;;;;;3.30;0.77;;;;;;;;;;4992054;28;20049;-65
2022/07/26 09:00:15;;;;;;;6.63;0.90;;;;;;;;;;4992465;28;20042;-63
2022/07/26 09:02:41;;;;;;;4.78;1.15;;;;;;;;;;5000951;28;20062;-63
2022/07/26 09:05:07;;;;;;;4.85;0.75;;;;;;;;;;5012255;28;20045;-65
2022/07/26 09:07:34;;;;;;;7.45;1.48;;;;;;;;;;5009242;28;20050;-66
2022/07/26 09:10:01;;;;;;;7.38;1.00;;;;;;;;;;4993002;28;20458;-65
2022/07/26 09:12:28;;;;;;;6.82;0.90;;;;;;;;;;5012040;28;20037;-66
2022/07/26 09:14:54;;;;;;;6.45;1.02;;;;;;;;;;5011564;28;20536;-65
2022/07/26 09:17:21;;;;;;;6.70;1.38;;;;;;;;;;5011283;28;20069;-63
2022/07/26 09:20:05;;;;;;;6.38;1.60;;;;;;;;;;5011103;28;20049;-63
2022/07/26 09:22:31;;;;;;;12.30;1.25;;;;;;;;;;5002062;28;20034;-64
2022/07/26 09:24:57;;;;;;;9.10;1.20;;;;;;;;;;4995712;28;20125;-65
2022/07/26 09:27:24;;;;;;;8.15;1.33;;;;;;;;;;4986694;28;20041;-65
2022/07/26 09:29:56;;;;;;;6.80;1.05;;;;;;;;;;4990901;28;20437;-64
2022/07/26 09:32:23;;;;;;;4.43;0.90;;;;;;;;;;4991658;28;20500;-65
2022/07/26 09:34:50;;;;;;;6.43;1.25;;;;;;;;;;4998925;28;20042;-64
2022/07/26 09:37:16;;;;;;;3.38;0.70;;;;;;;;;;4995940;28;20133;-63
2022/07/26 09:40:08;;;;;;;6.78;0.82;;;;;;;;;;4990574;28;20042;-64
2022/07/26 09:42:35;;;;;;;4.70;0.90;;;;;;;;;;4990731;28;20461;-64
2022/07/26 09:45:01;;;;;;;4.88;0.85;;;;;;;;;;4990923;28;20054;-64
2022/07/26 09:47:39;;;;;;;5.53;0.95;;;;;;;;;;4973844;28;20068;-64
2022/07/26 09:50:09;;;;;;;8.55;1.23;;;;;;;;;;4991650;28;20117;-63
2022/07/26 09:52:36;;;;;;;7.40;1.50;;;;;;;;;;4991478;28;20081;-63
2022/07/26 09:55:07;;;;;;;4.72;1.35;;;;;;;;;;4990104;28;20038;-63
2022/07/26 09:57:34;;;;;;;6.93;1.25;;;;;;;;;;4990960;28;20056;-63
2022/07/26 10:00:04;;;;;;;6.35;1.10;;;;;;;;;;4990821;28;20050;-63
2022/07/26 10:02:31;;;;;;;7.43;1.20;;;;;;;;;;4975672;28;20091;-63
2022/07/26 10:04:57;;;;;;;5.28;1.20;;;;;;;;;;4991220;28;20042;-63
2022/07/26 10:07:23;;;;;;;3.67;1.30;;;;;;;;;;4990772;28;20682;-65
2022/07/26 10:09:53;;;;;;;5.40;1.38;;;;;;;;;;4990834;28;20046;-65
2022/07/26 10:12:20;;;;;;;8.25;1.42;;;;;;;;;;4977527;28;20122;-66
2022/07/26 10:14:50;;;;;;;6.80;1.02;;;;;;;;;;4990571;28;20560;-66
2022/07/26 10:17:36;;;;;;;8.38;1.77;;;;;;;;;;4973576;28;20053;-67
2022/07/26 10:20:06;;;;;;;10.80;1.50;;;;;;;;;;4976806;28;20050;-67
2022/07/26 10:22:34;;;;;;;8.25;1.70;;;;;;;;;;4990337;28;20073;-66
2022/07/26 10:25:15;;;;;;;9.07;1.73;;;;;;;;;;4990365;28;20078;-67
2022/07/26 10:27:41;;;;;;;8.40;1.63;;;;;;;;;;4983206;28;20049;-67
2022/07/26 10:30:16;;;;;;;9.07;2.05;;;;;;;;;;4990666;28;20048;-66
2022/07/26 10:32:57;;;;;;;11.95;1.95;;;;;;;;;;4976899;28;20190;-66
2022/07/26 10:35:39;;;;;;;11.63;1.73;;;;;;;;;;4995290;28;20077;-66
2022/07/26 10:38:07;;;;;;;9.77;1.70;;;;;;;;;;4994449;28;20097;-66
2022/07/26 10:40:33;;;;;;;10.38;1.90;;;;;;;;;;4994551;28;20077;-65
2022/07/26 10:43:13;;;;;;;9.27;1.45;;;;;;;;;;4994650;28;20133;-65
2022/07/26 10:45:39;;;;;;;15.60;2.28;;;;;;;;;;4993983;28;20100;-65
2022/07/26 10:48:11;;;;;;;11.75;1.92;;;;;;;;;;4994865;28;20460;-65
2022/07/26 10:50:37;;;;;;;;;;;;;;;;;;4995161;28;20497;-65
2022/07/26 10:53:03;;;;;;;7.28;1.40;;;;;;;;;;4994773;28;19976;-65
2022/07/26 10:55:30;;;;;;;8.90;1.10;;;;;;;;;;4994700;28;20042;-65
2022/07/26 10:57:56;;;;;;;6.15;1.50;;;;;;;;;;4993682;28;20045;-65
2022/07/26 11:00:23;;;;;;;8.95;1.50;;;;;;;;;;4993883;28;20042;-65
2022/07/26 11:02:54;;;;;;;6.50;1.13;;;;;;;;;;4994524;28;20588;-65
2022/07/26 11:05:21;;;;;;;5.43;1.30;;;;;;;;;;4994940;28;20038;-65
2022/07/26 11:07:49;;;;;;;7.93;1.65;;;;;;;;;;4993183;28;20042;-65
2022/07/26 11:10:16;;;;;;;4.70;1.55;;;;;;;;;;4995213;28;20077;-65
2022/07/26 11:12:42;;;;;;;7.47;1.45;;;;;;;;;;4994208;28;20048;-65
2022/07/26 11:15:18;;;;;;;6.50;1.50;;;;;;;;;;4993950;28;20046;-63
2022/07/26 11:17:44;;;;;;;10.38;1.60;;;;;;;;;;4993794;28;20042;-65
2022/07/26 11:20:11;;;;;;;13.10;1.85;;;;;;;;;;4993750;28;20042;-65
2022/07/26 11:22:36;;;;;;;5.60;1.40;;;;;;;;;;4993844;28;20078;-65
2022/07/26 11:25:03;;;;;;;11.52;1.67;;;;;;;;;;4993800;28;20069;-65
2022/07/26 11:27:30;;;;;;;11.52;1.45;;;;;;;;;;4993281;28;20056;-65
2022/07/26 11:30:02;;;;;;;9.60;2.25;;;;;;;;;;4993674;28;20779;-65
2022/07/26 11:32:28;;;;;;;7.70;1.30;;;;;;;;;;4993439;28;20138;-65
2022/07/26 11:34:58;;;;;;;7.45;1.40;;;;;;;;;;4993066;28;20448;-64
2022/07/26 11:37:25;;;;;;;8.48;1.38;;;;;;;;;;4993353;28;20052;-64
2022/07/26 11:39:51;;;;;;;10.32;1.70;;;;;;;;;;4992522;28;20046;-65
2022/07/26 11:42:20;;;;;;;11.38;1.55;;;;;;;;;;4992575;28;20073;-65
2022/07/26 11:44:47;;;;;;;10.15;1.50;;;;;;;;;;4991878;28;20073;-65
2022/07/26 11:47:14;;;;;;;8.15;1.30;;;;;;;;;;4981372;28;20153;-65
2022/07/26 11:49:40;;;;;;;10.70;1.33;;;;;;;;;;4993700;28;20046;-65
2022/07/26 11:52:06;;;;;;;6.03;1.42;;;;;;;;;;5002236;28;20035;-66
2022/07/26 11:54:42;;;;;;;13.80;2.03;;;;;;;;;;4993036;28;20117;-66
2022/07/26 11:57:08;;;;;;;7.70;1.20;;;;;;;;;;4974918;28;20520;-66
2022/07/26 11:59:35;;;;;;;7.78;1.80;;;;;;;;;;4999261;28;20101;-67
2022/07/26 12:02:02;;;;;;;6.40;1.48;;;;;;;;;;4994945;28;20647;-65
2022/07/26 12:04:30;;;;;;;4.35;1.20;;;;;;;;;;5000570;28;20439;-68
2022/07/26 12:06:57;;;;;;;8.20;1.73;;;;;;;;;;4977049;28;20372;-68
2022/07/26 12:09:29;;;;;;;5.00;1.15;;;;;;;;;;4998316;28;20035;-66
2022/07/26 12:11:55;;;;;;;7.78;1.13;;;;;;;;;;4991729;28;20038;-65
2022/07/26 12:14:25;;;;;;;4.20;1.35;;;;;;;;;;5012415;28;20435;-65
2022/07/26 12:16:51;;;;;;;7.40;1.30;;;;;;;;;;5012425;28;20121;-66
2022/07/26 12:19:17;;;;;;;5.25;1.00;;;;;;;;;;4981063;28;20042;-65
2022/07/26 12:21:46;;;;;;;6.72;1.20;;;;;;;;;;5009081;28;20120;-65
2022/07/26 12:24:13;;;;;;;6.68;1.63;;;;;;;;;;4989263;28;20048;-67
2022/07/26 12:26:39;;;;;;;6.43;1.08;;;;;;;;;;4993419;28;20740;-66
2022/07/26 12:29:24;;;;;;;4.88;1.15;;;;;;;;;;4994889;28;20042;-64
2022/07/26 12:32:02;;;;;;;4.18;1.08;;;;;;;;;;5003123;28;20092;-65
2022/07/26 12:34:28;;;;;;;3.85;1.52;;;;;;;;;;4992363;28;20046;-66
2022/07/26 12:36:54;;;;;;;4.97;1.08;;;;;;;;;;4991988;28;20073;-66
2022/07/26 12:39:20;;;;;;;6.13;1.10;;;;;;;;;;4987058;28;20065;-67
2022/07/26 12:41:49;;;;;;;7.85;1.15;;;;;;;;;;4999273;28;20491;-65
2022/07/26 12:44:16;;;;;;;5.93;1.10;;;;;;;;;;5004190;28;20050;-67
2022/07/26 12:46:46;;;;;;;5.18;1.13;;;;;;;;;;4990253;28;20050;-64
2022/07/26 12:49:12;;;;;;;4.88;0.90;;;;;;;;;;4981982;28;20675;-65
2022/07/26 12:51:38;;;;;;;5.85;0.95;;;;;;;;;;4999402;28;20120;-65
2022/07/26 12:54:05;;;;;;;3.50;1.08;;;;;;;;;;4997301;28;20651;-65
2022/07/26 12:56:31;;;;;;;8.02;0.90;;;;;;;;;;4984763;28;20126;-65
2022/07/26 12:59:01;;;;;;;4.72;1.30;;;;;;;;;;4990731;28;20100;-65
2022/07/26 13:01:28;;;;;;;5.32;1.20;;;;;;;;;;4997840;28;20125;-65
2022/07/26 13:03:54;;;;;;;4.65;0.95;;;;;;;;;;5000325;28;20093;-65
2022/07/26 13:06:20;;;;;;;6.03;0.95;;;;;;;;;;5005463;28;20034;-65
2022/07/26 13:08:47;;;;;;;3.10;0.95;;;;;;;;;;4992793;28;20046;-65
2022/07/26 13:11:13;;;;;;;5.93;1.35;;;;;;;;;;4997191;28;20092;-66
2022/07/26 13:13:39;;;;;;;4.85;1.00;;;;;;;;;;5003647;28;20061;-67
2022/07/26 13:16:05;;;;;;;3.65;0.95;;;;;;;;;;4998640;28;20054;-67
2022/07/26 13:18:31;;;;;;;4.32;0.98;;;;;;;;;;5006701;28;20080;-66
2022/07/26 13:20:57;;;;;;;3.78;0.88;;;;;;;;;;4992558;28;20473;-66
2022/07/26 13:23:23;;;;;;;4.32;0.90;;;;;;;;;;5004808;28;20042;-65
2022/07/26 13:25:49;;;;;;;9.90;0.93;;;;;;;;;;4992781;28;20377;-65
2022/07/26 13:28:15;;;;;;;5.55;1.05;;;;;;;;;;4991086;28;20046;-65
2022/07/26 13:30:42;;;;;;;6.97;1.25;;;;;;;;;;5006845;28;20500;-67
2022/07/26 13:33:08;;;;;;;4.30;0.80;;;;;;;;;;4992661;28;20187;-66
2022/07/26 13:35:38;;;;;;;4.47;0.88;;;;;;;;;;4991793;28;20492;-66
2022/07/26 13:38:04;;;;;;;5.50;0.98;;;;;;;;;;4990608;28;20414;-64
2022/07/26 13:40:30;;;;;;;5.60;1.05;;;;;;;;;;4991736;28;20073;-65
2022/07/26 13:42:56;;;;;;;5.75;0.93;;;;;;;;;;4990246;28;20057;-65
2022/07/26 13:45:22;;;;;;;3.85;0.95;;;;;;;;;;5000113;28;20042;-65
2022/07/26 13:47:48;;;;;;;6.05;0.82;;;;;;;;;;5001119;28;20093;-66
2022/07/26 13:50:14;;;;;;;6.43;1.08;;;;;;;;;;5002375;28;20113;-65
2022/07/26 13:52:40;;;;;;;7.53;0.90;;;;;;;;;;4994995;28;20042;-66
2022/07/26 13:55:07;;;;;;;2.75;1.10;;;;;;;;;;5006795;28;20466;-65
2022/07/26 13:57:33;;;;;;;3.78;0.77;;;;;;;;;;4999507;28;20124;-65
2022/07/26 13:59:59;;;;;;;5.95;0.90;;;;;;;;;;5000070;28;20056;-63
2022/07/26 14:02:25;;;;;;;3.60;0.90;;;;;;;;;;4982256;28;20490;-63
2022/07/26 14:04:51;;;;;;;5.53;1.17;;;;;;;;;;4990093;28;20046;-63
2022/07/26 14:07:17;;;;;;;7.75;1.00;;;;;;;;;;4990689;28;20042;-65
2022/07/26 14:09:43;;;;;;;7.57;1.15;;;;;;;;;;4990597;28;20566;-65
2022/07/26 14:12:13;;;;;;;3.28;0.80;;;;;;;;;;4992562;28;20396;-64
2022/07/26 14:14:39;;;;;;;6.45;1.30;;;;;;;;;;5009732;28;20049;-65
2022/07/26 14:17:05;;;;;;;4.72;0.93;;;;;;;;;;5007033;28;20049;-65
2022/07/26 14:19:31;;;;;;;7.78;1.15;;;;;;;;;;4999267;28;20038;-65
2022/07/26 14:21:57;;;;;;;5.28;1.02;;;;;;;;;;5006981;28;20489;-66
2022/07/26 14:24:24;;;;;;;5.50;1.10;;;;;;;;;;4986367;28;20555;-65
2022/07/26 14:26:50;;;;;;;7.20;1.50;;;;;;;;;;4989216;28;20038;-65
2022/07/26 14:29:16;;;;;;;6.20;1.70;;;;;;;;;;4984509;28;20057;-65
2022/07/26 14:31:43;;;;;;;3.95;0.73;;;;;;;;;;4994290;28;20050;-65
2022/07/26 14:34:09;;;;;;;4.32;1.10;;;;;;;;;;5010673;28;20497;-66
2022/07/26 14:36:35;;;;;;;7.05;1.00;;;;;;;;;;5011052;28;20046;-65
2022/07/26 14:39:01;;;;;;;3.42;0.80;;;;;;;;;;5011215;28;20042;-65
2022/07/26 14:41:27;;;;;;;3.55;1.10;;;;;;;;;;4997063;28;20031;-65